nws-alerts: Checking more than four warning/county codes can delay the loading of your pages. You should use a cron job to get the data.

Nearby METAR Reports

 

KBFI - Boeing Field Seattle, WA, USA
Distance from station: SE 4mi, 7km
Updated: Tue, 24-Apr-2018 2:53am PDT
Clear
Clear
 Wind from varies
Wind: varies 5 mph , 7 km/h
Temperature: 52°F , 11°C
Dew Point: 39°F , 4°C
Humidity: 62%
Barometer: 30.22 inHg , 1023.4 hPa
Clouds: Clear
Visibility: 10 miles , 16 km
2018/04/24 09:53 KBFI 240953Z VRB04KT 10SM CLR 11/04 A3022 RMK AO2 SLP232 T01060039
KSEA - Seattle/Metro, WA, USA
Distance from station: NE 5mi, 8km
Updated: Tue, 24-Apr-2018 2:53am PDT
Clear
Clear
 Wind from NNW
Wind: NNW 12 mph , 19 km/h
Temperature: 50°F , 10°C
Wind Chill: 45°F , 7°C
Dew Point: 36°F , 2°C
Humidity: 58%
Barometer: 30.21 inHg , 1023 hPa
Clouds: Clear
Visibility: 10 miles , 16 km
2018/04/24 09:53 KSEA 240953Z 34010KT 10SM CLR 10/02 A3021 RMK AO2 SLP235 T01000022
 
KTIW - Tacoma, WA, USA
Distance from station: S 30mi, 45km
Updated: Tue, 24-Apr-2018 2:53am PDT
Clear
Clear
 Wind from N
Wind: N 5 mph , 7 km/h
Temperature: 54°F , 12°C
Dew Point: 36°F , 2°C
Humidity: 51%
Barometer: 30.21 inHg , 1023 hPa
Clouds: Clear
Visibility: 10 miles , 16 km
2018/04/24 09:53 KTIW 240953Z AUTO 01004KT 10SM CLR 12/02 A3021 RMK AO2 SLP228 T01170017
KCLM - Port Angeles, WA, USA
Distance from station: NW 70mi, 100km
Updated: Tue, 24-Apr-2018 2:53am PDT
Clear
Clear
 Wind from SW
Wind: SW 8 mph , 13 km/h
Temperature: 45°F , 7°C
Wind Chill: 41°F , 5°C
Dew Point: 37°F , 3°C
Humidity: 76%
Barometer: 30.25 inHg , 1024.4 hPa
Clouds: Clear
Visibility: 10 miles , 16 km
2018/04/24 09:53 KCLM 240953Z AUTO 23007KT 10SM CLR 07/03 A3025 RMK AO2 SLP243 T00720028